Terminal Aerodrome Forecast
Issued by NWS Duluth, MN

Home | Current Version | Previous Version | Text Only | Print | Product List | Glossary On
Versions: 1 2 3 4 5 6 7 8 9 10 11 12 13 14 15 16 17 18 19 20 21 22 23 24 25 26 27
000
FTUS43 KDLH 032337
TAFDLH
TAF
KDLH 032337Z 0400/0424 10010KT P6SM SKC
     FM040100 08009KT P6SM SKC
     FM040400 06005KT 3SM BR SCT002
     FM040500 06005KT 1/2SM FG OVC002
     FM040700 06004KT 1/4SM FG VV002
     FM041700 08010KT P6SM SCT002=

USA.gov is the U.S. government's official web portal to all federal, state and local government web resources and services.